sensor_id;sensor_type;location;lat;lon;timestamp;temperature;humidity
73586;DHT22;61865;50.232;18.614;2022-08-30T00:00:56;9.80;99.90
73586;DHT22;61865;50.232;18.614;2022-08-30T00:03:23;9.80;99.90
73586;DHT22;61865;50.232;18.614;2022-08-30T00:05:46;9.80;99.90
73586;DHT22;61865;50.232;18.614;2022-08-30T00:08:09;9.80;99.90
73586;DHT22;61865;50.232;18.614;2022-08-30T00:10:31;9.70;99.90
73586;DHT22;61865;50.232;18.614;2022-08-30T00:12:53;9.70;99.90
73586;DHT22;61865;50.232;18.614;2022-08-30T00:15:17;9.70;99.90
73586;DHT22;61865;50.232;18.614;2022-08-30T00:17:39;9.90;99.90
73586;DHT22;61865;50.232;18.614;2022-08-30T00:20:02;9.90;99.90
73586;DHT22;61865;50.232;18.614;2022-08-30T00:22:25;10.00;99.90
73586;DHT22;61865;50.232;18.614;2022-08-30T00:24:47;10.00;99.90
73586;DHT22;61865;50.232;18.614;2022-08-30T00:27:09;9.90;99.90
73586;DHT22;61865;50.232;18.614;2022-08-30T00:29:31;9.90;99.90
73586;DHT22;61865;50.232;18.614;2022-08-30T00:31:53;9.90;99.90
73586;DHT22;61865;50.232;18.614;2022-08-30T00:34:15;9.90;99.90
73586;DHT22;61865;50.232;18.614;2022-08-30T00:36:37;9.80;99.90
73586;DHT22;61865;50.232;18.614;2022-08-30T00:39:00;9.80;99.90
73586;DHT22;61865;50.232;18.614;2022-08-30T00:41:23;9.70;99.90
73586;DHT22;61865;50.232;18.614;2022-08-30T00:43:45;9.70;99.90
73586;DHT22;61865;50.232;18.614;2022-08-30T00:46:06;9.60;99.90
73586;DHT22;61865;50.232;18.614;2022-08-30T00:48:29;9.60;99.90
73586;DHT22;61865;50.232;18.614;2022-08-30T00:50:54;9.60;99.90
73586;DHT22;61865;50.232;18.614;2022-08-30T00:53:20;9.60;99.90
73586;DHT22;61865;50.232;18.614;2022-08-30T00:55:45;9.50;99.90
73586;DHT22;61865;50.232;18.614;2022-08-30T00:58:12;9.60;99.90
73586;DHT22;61865;50.232;18.614;2022-08-30T01:00:35;9.50;99.90
73586;DHT22;61865;50.232;18.614;2022-08-30T01:02:57;9.50;99.90
73586;DHT22;61865;50.232;18.614;2022-08-30T01:05:20;9.40;99.90
73586;DHT22;61865;50.232;18.614;2022-08-30T01:07:43;9.40;99.90
73586;DHT22;61865;50.232;18.614;2022-08-30T01:10:07;9.50;99.90
73586;DHT22;61865;50.232;18.614;2022-08-30T01:12:31;9.60;99.90
73586;DHT22;61865;50.232;18.614;2022-08-30T01:14:53;9.50;99.90
73586;DHT22;61865;50.232;18.614;2022-08-30T01:17:16;9.40;99.90
73586;DHT22;61865;50.232;18.614;2022-08-30T01:19:42;9.40;99.90
73586;DHT22;61865;50.232;18.614;2022-08-30T01:22:14;9.30;99.90
73586;DHT22;61865;50.232;18.614;2022-08-30T01:24:40;9.30;99.90
73586;DHT22;61865;50.232;18.614;2022-08-30T01:27:02;9.20;99.90
73586;DHT22;61865;50.232;18.614;2022-08-30T01:29:25;9.10;99.90
73586;DHT22;61865;50.232;18.614;2022-08-30T01:31:47;9.10;99.90
73586;DHT22;61865;50.232;18.614;2022-08-30T01:34:09;9.10;99.90
73586;DHT22;61865;50.232;18.614;2022-08-30T01:36:32;9.10;99.90
73586;DHT22;61865;50.232;18.614;2022-08-30T01:38:56;9.10;99.90
73586;DHT22;61865;50.232;18.614;2022-08-30T01:41:22;9.10;99.90
73586;DHT22;61865;50.232;18.614;2022-08-30T01:43:44;9.00;99.90
73586;DHT22;61865;50.232;18.614;2022-08-30T01:46:06;8.90;99.90
73586;DHT22;61865;50.232;18.614;2022-08-30T01:48:30;8.90;99.90
73586;DHT22;61865;50.232;18.614;2022-08-30T01:50:52;8.80;99.90
73586;DHT22;61865;50.232;18.614;2022-08-30T01:53:14;8.80;99.90
73586;DHT22;61865;50.232;18.614;2022-08-30T01:55:36;8.70;99.90
73586;DHT22;61865;50.232;18.614;2022-08-30T01:58:00;8.70;99.90
73586;DHT22;61865;50.232;18.614;2022-08-30T02:00:22;8.70;99.90
73586;DHT22;61865;50.232;18.614;2022-08-30T02:02:44;8.70;99.90
73586;DHT22;61865;50.232;18.614;2022-08-30T02:05:06;8.70;99.90
73586;DHT22;61865;50.232;18.614;2022-08-30T02:07:28;8.80;99.90
73586;DHT22;61865;50.232;18.614;2022-08-30T02:09:52;8.80;99.90
73586;DHT22;61865;50.232;18.614;2022-08-30T02:12:14;8.80;99.90
73586;DHT22;61865;50.232;18.614;2022-08-30T02:14:38;8.80;99.90
73586;DHT22;61865;50.232;18.614;2022-08-30T02:17:00;8.90;99.90
73586;DHT22;61865;50.232;18.614;2022-08-30T02:19:22;8.80;99.90
73586;DHT22;61865;50.232;18.614;2022-08-30T02:21:44;8.90;99.90
73586;DHT22;61865;50.232;18.614;2022-08-30T02:24:06;8.90;99.90
73586;DHT22;61865;50.232;18.614;2022-08-30T02:26:28;8.90;99.90
73586;DHT22;61865;50.232;18.614;2022-08-30T02:28:50;8.80;99.90
73586;DHT22;61865;50.232;18.614;2022-08-30T02:31:14;8.70;99.90
73586;DHT22;61865;50.232;18.614;2022-08-30T02:33:36;8.70;99.90
73586;DHT22;61865;50.232;18.614;2022-08-30T02:35:58;8.60;99.90
73586;DHT22;61865;50.232;18.614;2022-08-30T02:38:20;8.60;99.90
73586;DHT22;61865;50.232;18.614;2022-08-30T02:40:43;8.60;99.90
73586;DHT22;61865;50.232;18.614;2022-08-30T02:43:05;8.60;99.90
73586;DHT22;61865;50.232;18.614;2022-08-30T02:45:27;8.70;99.90
73586;DHT22;61865;50.232;18.614;2022-08-30T02:47:50;8.70;99.90
73586;DHT22;61865;50.232;18.614;2022-08-30T02:50:12;8.60;99.90
73586;DHT22;61865;50.232;18.614;2022-08-30T02:52:35;8.60;99.90
73586;DHT22;61865;50.232;18.614;2022-08-30T02:54:57;8.70;99.90
73586;DHT22;61865;50.232;18.614;2022-08-30T02:57:20;8.70;99.90
73586;DHT22;61865;50.232;18.614;2022-08-30T02:59:42;8.70;99.90
73586;DHT22;61865;50.232;18.614;2022-08-30T03:02:05;8.80;99.90
73586;DHT22;61865;50.232;18.614;2022-08-30T03:04:28;8.90;99.90
73586;DHT22;61865;50.232;18.614;2022-08-30T03:06:50;8.90;99.90
73586;DHT22;61865;50.232;18.614;2022-08-30T03:09:12;9.00;99.90
73586;DHT22;61865;50.232;18.614;2022-08-30T03:11:34;9.00;99.90
73586;DHT22;61865;50.232;18.614;2022-08-30T03:13:57;9.10;99.90
73586;DHT22;61865;50.232;18.614;2022-08-30T03:16:19;9.10;99.90
73586;DHT22;61865;50.232;18.614;2022-08-30T03:18:42;9.10;99.90
73586;DHT22;61865;50.232;18.614;2022-08-30T03:21:10;9.10;99.90
73586;DHT22;61865;50.232;18.614;2022-08-30T03:23:32;9.00;99.90
73586;DHT22;61865;50.232;18.614;2022-08-30T03:25:54;8.90;99.90
73586;DHT22;61865;50.232;18.614;2022-08-30T03:28:16;8.90;99.90
73586;DHT22;61865;50.232;18.614;2022-08-30T03:30:38;8.80;99.90
73586;DHT22;61865;50.232;18.614;2022-08-30T03:33:01;8.80;99.90
73586;DHT22;61865;50.232;18.614;2022-08-30T03:35:23;8.90;99.90
73586;DHT22;61865;50.232;18.614;2022-08-30T03:37:46;9.00;99.90
73586;DHT22;61865;50.232;18.614;2022-08-30T03:40:10;9.10;99.90
73586;DHT22;61865;50.232;18.614;2022-08-30T03:42:32;9.10;99.90
73586;DHT22;61865;50.232;18.614;2022-08-30T03:44:54;9.00;99.90
73586;DHT22;61865;50.232;18.614;2022-08-30T03:47:16;9.00;99.90
73586;DHT22;61865;50.232;18.614;2022-08-30T03:49:39;8.90;99.90
73586;DHT22;61865;50.232;18.614;2022-08-30T03:52:02;8.80;99.90
73586;DHT22;61865;50.232;18.614;2022-08-30T03:54:25;8.70;99.90
73586;DHT22;61865;50.232;18.614;2022-08-30T03:56:47;8.70;99.90
73586;DHT22;61865;50.232;18.614;2022-08-30T03:59:09;8.70;99.90
73586;DHT22;61865;50.232;18.614;2022-08-30T04:01:31;8.70;99.90
73586;DHT22;61865;50.232;18.614;2022-08-30T04:03:53;8.60;99.90
73586;DHT22;61865;50.232;18.614;2022-08-30T04:06:16;8.60;99.90
73586;DHT22;61865;50.232;18.614;2022-08-30T04:08:38;8.50;99.90
73586;DHT22;61865;50.232;18.614;2022-08-30T04:11:01;8.40;99.90
73586;DHT22;61865;50.232;18.614;2022-08-30T04:13:23;8.40;99.90
73586;DHT22;61865;50.232;18.614;2022-08-30T04:15:45;8.40;99.90
73586;DHT22;61865;50.232;18.614;2022-08-30T04:18:07;8.50;99.90
73586;DHT22;61865;50.232;18.614;2022-08-30T04:20:29;8.50;99.90
73586;DHT22;61865;50.232;18.614;2022-08-30T04:22:51;8.60;99.90
73586;DHT22;61865;50.232;18.614;2022-08-30T04:25:13;8.60;99.90
73586;DHT22;61865;50.232;18.614;2022-08-30T04:27:36;8.60;99.90
73586;DHT22;61865;50.232;18.614;2022-08-30T04:29:58;8.70;99.90
73586;DHT22;61865;50.232;18.614;2022-08-30T04:32:20;8.80;99.90
73586;DHT22;61865;50.232;18.614;2022-08-30T04:34:42;8.90;99.90
73586;DHT22;61865;50.232;18.614;2022-08-30T04:37:05;9.10;99.90
73586;DHT22;61865;50.232;18.614;2022-08-30T04:39:27;9.20;99.90
73586;DHT22;61865;50.232;18.614;2022-08-30T04:41:49;9.40;99.90
73586;DHT22;61865;50.232;18.614;2022-08-30T04:44:12;9.60;99.90
73586;DHT22;61865;50.232;18.614;2022-08-30T04:46:35;9.80;99.90
73586;DHT22;61865;50.232;18.614;2022-08-30T04:48:57;9.90;99.90
73586;DHT22;61865;50.232;18.614;2022-08-30T04:51:19;10.10;99.90
73586;DHT22;61865;50.232;18.614;2022-08-30T04:53:42;10.20;99.90
73586;DHT22;61865;50.232;18.614;2022-08-30T04:56:07;10.30;99.90
73586;DHT22;61865;50.232;18.614;2022-08-30T04:58:29;10.40;99.90
73586;DHT22;61865;50.232;18.614;2022-08-30T05:00:52;10.60;99.90
73586;DHT22;61865;50.232;18.614;2022-08-30T05:03:14;10.80;99.90
73586;DHT22;61865;50.232;18.614;2022-08-30T05:05:37;10.90;99.90
73586;DHT22;61865;50.232;18.614;2022-08-30T05:08:02;11.10;99.90
73586;DHT22;61865;50.232;18.614;2022-08-30T05:10:25;11.20;99.90
73586;DHT22;61865;50.232;18.614;2022-08-30T05:12:48;11.30;99.90
73586;DHT22;61865;50.232;18.614;2022-08-30T05:15:11;11.50;99.90
73586;DHT22;61865;50.232;18.614;2022-08-30T05:17:35;11.60;99.90
73586;DHT22;61865;50.232;18.614;2022-08-30T05:19:59;11.80;99.90
73586;DHT22;61865;50.232;18.614;2022-08-30T05:22:21;11.90;99.90
73586;DHT22;61865;50.232;18.614;2022-08-30T05:24:43;12.00;99.90
73586;DHT22;61865;50.232;18.614;2022-08-30T05:27:05;12.10;99.90
73586;DHT22;61865;50.232;18.614;2022-08-30T05:29:27;12.20;99.90
73586;DHT22;61865;50.232;18.614;2022-08-30T05:31:50;12.30;99.90
73586;DHT22;61865;50.232;18.614;2022-08-30T05:34:14;12.40;99.90
73586;DHT22;61865;50.232;18.614;2022-08-30T05:36:37;12.60;99.90
73586;DHT22;61865;50.232;18.614;2022-08-30T05:38:59;12.60;99.90
73586;DHT22;61865;50.232;18.614;2022-08-30T05:41:22;12.70;99.90
73586;DHT22;61865;50.232;18.614;2022-08-30T05:43:45;12.80;99.90
73586;DHT22;61865;50.232;18.614;2022-08-30T05:46:09;12.90;99.90
73586;DHT22;61865;50.232;18.614;2022-08-30T05:48:32;13.00;99.90
73586;DHT22;61865;50.232;18.614;2022-08-30T05:51:03;13.10;99.90
73586;DHT22;61865;50.232;18.614;2022-08-30T05:53:25;13.20;99.90
73586;DHT22;61865;50.232;18.614;2022-08-30T05:55:47;13.30;99.90
73586;DHT22;61865;50.232;18.614;2022-08-30T05:58:09;13.40;99.90
73586;DHT22;61865;50.232;18.614;2022-08-30T06:00:31;13.50;99.90
73586;DHT22;61865;50.232;18.614;2022-08-30T06:02:53;13.50;99.90
73586;DHT22;61865;50.232;18.614;2022-08-30T06:05:15;13.60;99.90
73586;DHT22;61865;50.232;18.614;2022-08-30T06:07:38;13.70;99.90
73586;DHT22;61865;50.232;18.614;2022-08-30T06:10:00;13.80;99.90
73586;DHT22;61865;50.232;18.614;2022-08-30T06:12:22;13.90;99.90
73586;DHT22;61865;50.232;18.614;2022-08-30T06:14:44;14.00;99.90
73586;DHT22;61865;50.232;18.614;2022-08-30T06:17:06;14.10;99.90
73586;DHT22;61865;50.232;18.614;2022-08-30T06:19:28;14.20;99.90
73586;DHT22;61865;50.232;18.614;2022-08-30T06:21:50;14.40;99.90
73586;DHT22;61865;50.232;18.614;2022-08-30T06:24:14;14.40;99.90
73586;DHT22;61865;50.232;18.614;2022-08-30T06:26:37;14.60;99.90
73586;DHT22;61865;50.232;18.614;2022-08-30T06:29:00;14.70;99.90
73586;DHT22;61865;50.232;18.614;2022-08-30T06:31:23;14.80;99.90
73586;DHT22;61865;50.232;18.614;2022-08-30T06:33:46;14.90;99.90
73586;DHT22;61865;50.232;18.614;2022-08-30T06:36:10;15.00;99.90
73586;DHT22;61865;50.232;18.614;2022-08-30T06:38:32;15.10;99.90
73586;DHT22;61865;50.232;18.614;2022-08-30T06:40:55;15.20;99.90
73586;DHT22;61865;50.232;18.614;2022-08-30T06:43:17;15.30;99.90
73586;DHT22;61865;50.232;18.614;2022-08-30T06:45:39;15.40;99.90
73586;DHT22;61865;50.232;18.614;2022-08-30T06:48:02;15.50;99.90
73586;DHT22;61865;50.232;18.614;2022-08-30T06:50:23;15.70;99.90
73586;DHT22;61865;50.232;18.614;2022-08-30T06:52:45;15.80;99.90
73586;DHT22;61865;50.232;18.614;2022-08-30T06:55:08;15.90;99.90
73586;DHT22;61865;50.232;18.614;2022-08-30T06:57:31;15.90;99.90
73586;DHT22;61865;50.232;18.614;2022-08-30T06:59:54;16.00;99.90
73586;DHT22;61865;50.232;18.614;2022-08-30T07:02:16;16.10;99.90
73586;DHT22;61865;50.232;18.614;2022-08-30T07:04:38;16.30;99.90
73586;DHT22;61865;50.232;18.614;2022-08-30T07:07:00;16.50;99.90
73586;DHT22;61865;50.232;18.614;2022-08-30T07:09:22;16.80;99.90
73586;DHT22;61865;50.232;18.614;2022-08-30T07:11:44;17.00;99.90
73586;DHT22;61865;50.232;18.614;2022-08-30T07:14:07;17.20;99.90
73586;DHT22;61865;50.232;18.614;2022-08-30T07:16:30;17.50;99.90
73586;DHT22;61865;50.232;18.614;2022-08-30T07:18:52;17.60;99.90
73586;DHT22;61865;50.232;18.614;2022-08-30T07:21:17;17.60;99.90
73586;DHT22;61865;50.232;18.614;2022-08-30T07:23:40;17.80;99.90
73586;DHT22;61865;50.232;18.614;2022-08-30T07:26:04;18.10;99.90
73586;DHT22;61865;50.232;18.614;2022-08-30T07:28:26;18.30;99.90
73586;DHT22;61865;50.232;18.614;2022-08-30T07:30:49;18.50;99.90
73586;DHT22;61865;50.232;18.614;2022-08-30T07:33:11;18.60;99.90
73586;DHT22;61865;50.232;18.614;2022-08-30T07:35:33;18.70;99.90
73586;DHT22;61865;50.232;18.614;2022-08-30T07:37:56;18.60;99.90
73586;DHT22;61865;50.232;18.614;2022-08-30T07:40:19;18.60;99.90
73586;DHT22;61865;50.232;18.614;2022-08-30T07:42:40;18.50;99.90
73586;DHT22;61865;50.232;18.614;2022-08-30T07:45:03;18.30;99.90
73586;DHT22;61865;50.232;18.614;2022-08-30T07:47:26;18.30;99.90
73586;DHT22;61865;50.232;18.614;2022-08-30T07:49:48;18.40;99.90
73586;DHT22;61865;50.232;18.614;2022-08-30T07:52:10;18.40;99.90
73586;DHT22;61865;50.232;18.614;2022-08-30T07:54:32;18.50;99.90
73586;DHT22;61865;50.232;18.614;2022-08-30T07:56:54;18.70;99.90
73586;DHT22;61865;50.232;18.614;2022-08-30T07:59:16;18.90;99.90
73586;DHT22;61865;50.232;18.614;2022-08-30T08:01:38;18.80;99.90
73586;DHT22;61865;50.232;18.614;2022-08-30T08:04:01;18.90;99.90
73586;DHT22;61865;50.232;18.614;2022-08-30T08:06:24;19.10;99.90
73586;DHT22;61865;50.232;18.614;2022-08-30T08:08:47;19.30;99.90
73586;DHT22;61865;50.232;18.614;2022-08-30T08:11:11;19.60;99.90
73586;DHT22;61865;50.232;18.614;2022-08-30T08:13:35;19.50;99.90
73586;DHT22;61865;50.232;18.614;2022-08-30T08:15:57;19.40;99.90
73586;DHT22;61865;50.232;18.614;2022-08-30T08:18:19;19.50;99.90
73586;DHT22;61865;50.232;18.614;2022-08-30T08:20:43;19.20;99.60
73586;DHT22;61865;50.232;18.614;2022-08-30T08:23:04;19.50;99.90
73586;DHT22;61865;50.232;18.614;2022-08-30T08:25:26;19.50;99.30
73586;DHT22;61865;50.232;18.614;2022-08-30T08:27:49;19.70;99.50
73586;DHT22;61865;50.232;18.614;2022-08-30T08:30:12;19.80;95.10
73586;DHT22;61865;50.232;18.614;2022-08-30T08:32:34;19.70;93.70
73586;DHT22;61865;50.232;18.614;2022-08-30T08:34:56;19.70;93.30
73586;DHT22;61865;50.232;18.614;2022-08-30T08:37:19;19.90;92.40
73586;DHT22;61865;50.232;18.614;2022-08-30T08:39:42;20.30;92.90
73586;DHT22;61865;50.232;18.614;2022-08-30T08:42:10;20.70;90.20
73586;DHT22;61865;50.232;18.614;2022-08-30T08:44:48;21.00;87.90
73586;DHT22;61865;50.232;18.614;2022-08-30T08:47:14;21.00;84.90
73586;DHT22;61865;50.232;18.614;2022-08-30T08:49:37;20.80;85.60
73586;DHT22;61865;50.232;18.614;2022-08-30T08:52:01;20.30;89.40
73586;DHT22;61865;50.232;18.614;2022-08-30T08:54:47;19.90;91.30
73586;DHT22;61865;50.232;18.614;2022-08-30T08:57:11;19.80;93.70
73586;DHT22;61865;50.232;18.614;2022-08-30T08:59:33;19.80;92.30
73586;DHT22;61865;50.232;18.614;2022-08-30T09:01:58;19.90;94.10
73586;DHT22;61865;50.232;18.614;2022-08-30T09:04:25;20.30;92.80
73586;DHT22;61865;50.232;18.614;2022-08-30T09:06:54;20.50;87.60
73586;DHT22;61865;50.232;18.614;2022-08-30T09:09:20;20.50;85.90
73586;DHT22;61865;50.232;18.614;2022-08-30T09:11:46;20.60;85.30
73586;DHT22;61865;50.232;18.614;2022-08-30T09:14:13;20.70;88.20
73586;DHT22;61865;50.232;18.614;2022-08-30T09:16:53;20.80;83.80
73586;DHT22;61865;50.232;18.614;2022-08-30T09:19:36;21.00;88.70
73586;DHT22;61865;50.232;18.614;2022-08-30T09:22:02;20.90;79.10
73586;DHT22;61865;50.232;18.614;2022-08-30T09:24:24;20.80;81.50
73586;DHT22;61865;50.232;18.614;2022-08-30T09:26:47;20.90;79.60
73586;DHT22;61865;50.232;18.614;2022-08-30T09:29:15;21.10;78.60
73586;DHT22;61865;50.232;18.614;2022-08-30T09:31:46;21.50;78.50
73586;DHT22;61865;50.232;18.614;2022-08-30T09:34:16;21.80;75.80
73586;DHT22;61865;50.232;18.614;2022-08-30T09:36:40;21.80;74.60
73586;DHT22;61865;50.232;18.614;2022-08-30T09:39:04;21.70;76.70
73586;DHT22;61865;50.232;18.614;2022-08-30T09:41:34;21.30;77.40
73586;DHT22;61865;50.232;18.614;2022-08-30T09:44:07;21.10;77.70
73586;DHT22;61865;50.232;18.614;2022-08-30T09:46:29;21.20;78.60
73586;DHT22;61865;50.232;18.614;2022-08-30T09:48:51;21.30;80.20
73586;DHT22;61865;50.232;18.614;2022-08-30T09:51:34;21.00;78.80
73586;DHT22;61865;50.232;18.614;2022-08-30T09:54:07;20.70;82.20
73586;DHT22;61865;50.232;18.614;2022-08-30T09:56:38;20.40;83.90
73586;DHT22;61865;50.232;18.614;2022-08-30T09:59:10;20.20;82.80
73586;DHT22;61865;50.232;18.614;2022-08-30T10:01:36;20.20;85.50
73586;DHT22;61865;50.232;18.614;2022-08-30T10:04:06;20.30;87.20
73586;DHT22;61865;50.232;18.614;2022-08-30T10:06:38;20.40;85.10
73586;DHT22;61865;50.232;18.614;2022-08-30T10:09:10;20.50;85.30
73586;DHT22;61865;50.232;18.614;2022-08-30T10:11:37;20.70;84.60
73586;DHT22;61865;50.232;18.614;2022-08-30T10:16:53;21.00;77.90
73586;DHT22;61865;50.232;18.614;2022-08-30T10:19:24;20.90;76.60
73586;DHT22;61865;50.232;18.614;2022-08-30T10:21:57;21.00;78.10
73586;DHT22;61865;50.232;18.614;2022-08-30T10:24:25;21.10;78.20
73586;DHT22;61865;50.232;18.614;2022-08-30T10:26:51;21.30;78.20
73586;DHT22;61865;50.232;18.614;2022-08-30T10:29:20;21.40;79.00
73586;DHT22;61865;50.232;18.614;2022-08-30T10:31:47;21.30;76.70
73586;DHT22;61865;50.232;18.614;2022-08-30T10:34:16;21.20;78.20
73586;DHT22;61865;50.232;18.614;2022-08-30T10:36:43;21.10;81.80
73586;DHT22;61865;50.232;18.614;2022-08-30T10:39:07;21.10;75.60
73586;DHT22;61865;50.232;18.614;2022-08-30T10:41:35;21.10;75.60
73586;DHT22;61865;50.232;18.614;2022-08-30T10:44:01;21.20;73.70
73586;DHT22;61865;50.232;18.614;2022-08-30T10:46:28;21.30;75.00
73586;DHT22;61865;50.232;18.614;2022-08-30T10:48:51;21.40;72.80
73586;DHT22;61865;50.232;18.614;2022-08-30T10:51:19;21.60;75.00
73586;DHT22;61865;50.232;18.614;2022-08-30T10:53:45;21.70;74.80
73586;DHT22;61865;50.232;18.614;2022-08-30T10:56:10;21.90;69.80
73586;DHT22;61865;50.232;18.614;2022-08-30T10:58:33;22.20;69.00
73586;DHT22;61865;50.232;18.614;2022-08-30T11:07:01;22.90;66.40
73586;DHT22;61865;50.232;18.614;2022-08-30T11:09:48;22.50;69.10
73586;DHT22;61865;50.232;18.614;2022-08-30T11:12:32;22.40;71.20
73586;DHT22;61865;50.232;18.614;2022-08-30T11:14:56;22.10;70.70
73586;DHT22;61865;50.232;18.614;2022-08-30T11:17:25;21.90;69.50
73586;DHT22;61865;50.232;18.614;2022-08-30T11:19:47;21.70;69.40
73586;DHT22;61865;50.232;18.614;2022-08-30T11:22:13;21.60;72.20
73586;DHT22;61865;50.232;18.614;2022-08-30T11:25:00;21.60;72.80
73586;DHT22;61865;50.232;18.614;2022-08-30T11:27:38;21.70;70.50
73586;DHT22;61865;50.232;18.614;2022-08-30T11:32:58;22.40;65.10
73586;DHT22;61865;50.232;18.614;2022-08-30T11:35:35;22.70;62.40
73586;DHT22;61865;50.232;18.614;2022-08-30T11:37:59;22.90;62.70
73586;DHT22;61865;50.232;18.614;2022-08-30T11:40:44;23.10;62.50
73586;DHT22;61865;50.232;18.614;2022-08-30T11:46:14;23.10;61.20
73586;DHT22;61865;50.232;18.614;2022-08-30T11:48:41;23.00;66.80
73586;DHT22;61865;50.232;18.614;2022-08-30T11:51:07;22.90;65.80
73586;DHT22;61865;50.232;18.614;2022-08-30T11:53:39;22.60;66.80
73586;DHT22;61865;50.232;18.614;2022-08-30T11:56:06;22.40;67.40
73586;DHT22;61865;50.232;18.614;2022-08-30T11:58:41;22.40;66.00
73586;DHT22;61865;50.232;18.614;2022-08-30T12:01:20;22.40;65.90
73586;DHT22;61865;50.232;18.614;2022-08-30T12:03:56;22.50;65.40
73586;DHT22;61865;50.232;18.614;2022-08-30T12:06:44;22.70;65.10
73586;DHT22;61865;50.232;18.614;2022-08-30T12:09:10;23.10;64.00
73586;DHT22;61865;50.232;18.614;2022-08-30T12:12:03;23.50;64.50
73586;DHT22;61865;50.232;18.614;2022-08-30T12:14:37;23.60;64.60
73586;DHT22;61865;50.232;18.614;2022-08-30T12:17:00;23.30;64.50
73586;DHT22;61865;50.232;18.614;2022-08-30T12:19:42;22.90;66.40
73586;DHT22;61865;50.232;18.614;2022-08-30T12:22:07;22.80;63.00
73586;DHT22;61865;50.232;18.614;2022-08-30T12:24:33;22.60;63.40
73586;DHT22;61865;50.232;18.614;2022-08-30T12:26:57;22.50;66.40
73586;DHT22;61865;50.232;18.614;2022-08-30T12:29:26;22.40;64.60
73586;DHT22;61865;50.232;18.614;2022-08-30T12:31:52;22.60;65.00
73586;DHT22;61865;50.232;18.614;2022-08-30T12:34:21;22.80;61.30
73586;DHT22;61865;50.232;18.614;2022-08-30T12:36:50;23.00;64.80
73586;DHT22;61865;50.232;18.614;2022-08-30T12:39:15;23.30;61.50
73586;DHT22;61865;50.232;18.614;2022-08-30T12:41:39;23.40;65.30
73586;DHT22;61865;50.232;18.614;2022-08-30T12:44:03;23.20;61.30
73586;DHT22;61865;50.232;18.614;2022-08-30T12:46:28;23.10;63.80
73586;DHT22;61865;50.232;18.614;2022-08-30T12:48:51;23.00;64.10
73586;DHT22;61865;50.232;18.614;2022-08-30T12:51:29;22.80;65.10
73586;DHT22;61865;50.232;18.614;2022-08-30T12:54:07;22.50;62.50
73586;DHT22;61865;50.232;18.614;2022-08-30T12:56:51;22.30;63.30
73586;DHT22;61865;50.232;18.614;2022-08-30T12:59:38;22.30;61.10
73586;DHT22;61865;50.232;18.614;2022-08-30T13:02:06;22.30;63.70
73586;DHT22;61865;50.232;18.614;2022-08-30T13:04:29;22.30;59.80
73586;DHT22;61865;50.232;18.614;2022-08-30T13:06:52;22.30;55.20
73586;DHT22;61865;50.232;18.614;2022-08-30T13:09:23;22.30;58.40
73586;DHT22;61865;50.232;18.614;2022-08-30T13:11:49;22.30;58.20
73586;DHT22;61865;50.232;18.614;2022-08-30T13:14:24;22.60;60.90
73586;DHT22;61865;50.232;18.614;2022-08-30T13:16:49;22.70;59.60
73586;DHT22;61865;50.232;18.614;2022-08-30T13:19:30;22.90;58.60
73586;DHT22;61865;50.232;18.614;2022-08-30T13:21:54;23.00;62.20
73586;DHT22;61865;50.232;18.614;2022-08-30T13:24:16;23.10;62.50
73586;DHT22;61865;50.232;18.614;2022-08-30T13:26:38;23.10;64.30
73586;DHT22;61865;50.232;18.614;2022-08-30T13:29:04;23.10;62.50
73586;DHT22;61865;50.232;18.614;2022-08-30T13:31:27;22.90;62.60
73586;DHT22;61865;50.232;18.614;2022-08-30T13:33:50;22.70;62.20
73586;DHT22;61865;50.232;18.614;2022-08-30T13:36:13;22.50;62.40
73586;DHT22;61865;50.232;18.614;2022-08-30T13:38:35;22.20;64.40
73586;DHT22;61865;50.232;18.614;2022-08-30T13:40:57;22.10;66.10
73586;DHT22;61865;50.232;18.614;2022-08-30T13:43:19;22.00;67.60
73586;DHT22;61865;50.232;18.614;2022-08-30T13:45:42;21.80;67.10
73586;DHT22;61865;50.232;18.614;2022-08-30T13:48:05;21.90;66.70
73586;DHT22;61865;50.232;18.614;2022-08-30T13:50:27;22.00;65.70
73586;DHT22;61865;50.232;18.614;2022-08-30T13:52:49;22.20;60.30
73586;DHT22;61865;50.232;18.614;2022-08-30T13:55:11;22.40;58.50
73586;DHT22;61865;50.232;18.614;2022-08-30T13:57:33;22.60;58.10
73586;DHT22;61865;50.232;18.614;2022-08-30T13:59:55;22.70;56.80
73586;DHT22;61865;50.232;18.614;2022-08-30T14:02:18;22.70;56.90
73586;DHT22;61865;50.232;18.614;2022-08-30T14:04:40;22.80;61.10
73586;DHT22;61865;50.232;18.614;2022-08-30T14:07:02;22.80;63.20
73586;DHT22;61865;50.232;18.614;2022-08-30T14:09:24;22.40;63.70
73586;DHT22;61865;50.232;18.614;2022-08-30T14:11:46;22.30;63.70
73586;DHT22;61865;50.232;18.614;2022-08-30T14:14:08;22.20;63.90
73586;DHT22;61865;50.232;18.614;2022-08-30T14:16:31;22.20;62.70
73586;DHT22;61865;50.232;18.614;2022-08-30T14:18:54;22.20;63.20
73586;DHT22;61865;50.232;18.614;2022-08-30T14:21:16;22.20;59.00
73586;DHT22;61865;50.232;18.614;2022-08-30T14:23:38;22.30;59.20
73586;DHT22;61865;50.232;18.614;2022-08-30T14:26:00;22.30;59.70
73586;DHT22;61865;50.232;18.614;2022-08-30T14:28:25;22.40;60.20
73586;DHT22;61865;50.232;18.614;2022-08-30T14:30:49;22.40;61.60
73586;DHT22;61865;50.232;18.614;2022-08-30T14:33:11;22.40;62.40
73586;DHT22;61865;50.232;18.614;2022-08-30T14:35:34;22.20;59.70
73586;DHT22;61865;50.232;18.614;2022-08-30T14:37:56;22.20;60.90
73586;DHT22;61865;50.232;18.614;2022-08-30T14:40:18;22.20;61.80
73586;DHT22;61865;50.232;18.614;2022-08-30T14:42:40;22.20;59.60
73586;DHT22;61865;50.232;18.614;2022-08-30T14:45:02;22.20;61.40
73586;DHT22;61865;50.232;18.614;2022-08-30T14:47:24;22.20;61.80
73586;DHT22;61865;50.232;18.614;2022-08-30T14:49:46;22.30;60.10
73586;DHT22;61865;50.232;18.614;2022-08-30T14:52:09;22.30;58.20
73586;DHT22;61865;50.232;18.614;2022-08-30T14:54:31;22.30;60.10
73586;DHT22;61865;50.232;18.614;2022-08-30T14:56:54;22.40;57.20
73586;DHT22;61865;50.232;18.614;2022-08-30T14:59:16;22.40;58.50
73586;DHT22;61865;50.232;18.614;2022-08-30T15:01:39;22.40;59.80
73586;DHT22;61865;50.232;18.614;2022-08-30T15:04:02;22.40;59.20
73586;DHT22;61865;50.232;18.614;2022-08-30T15:06:24;22.40;59.00
73586;DHT22;61865;50.232;18.614;2022-08-30T15:08:47;22.40;58.50
73586;DHT22;61865;50.232;18.614;2022-08-30T15:11:11;22.30;58.10
73586;DHT22;61865;50.232;18.614;2022-08-30T15:13:33;22.30;56.50
73586;DHT22;61865;50.232;18.614;2022-08-30T15:15:55;22.30;56.80
73586;DHT22;61865;50.232;18.614;2022-08-30T15:18:17;22.30;60.00